Great Smoky Mtns National Park, NC

11:19 PM EST en Enero 28, 2015 (GMT -0500)
Asheville Middle School | Change Station
CLOSE
Current Station
Estación meteorológica personal
Location: Asheville, NC
Altura: 2139 ft
Estaciones meteorológicas cercanas

Alt 2139 ft 35.59 °N, 82.56 °W | Updated 11 minutes ago

Despejado
Despejado
24.4 ° F
Sensación térmica 24 ° F
N
2.2
Viento Variable Viento desde SSO

Hoy
Alta -- | Baja -- ° F
--% Posibilidad de precipitaciones
Ayer
Alta -- | Baja -- ° F
Precip. -- pul
7:33 AM 5:53 PM
Gibosa creciente, 70% visible
Presión 30.31 pul
Visibilidad 10.0 Millas
Nubes Despejado
Vientos helados 24 ° F
Punto de rocío 18 ° F
Humedad 76%
Precipitaciones 0.00 pul
Espesor de la nieve No disponible.
UV 0 de una escala de 12
Polen .50 de una escala de 12
Calidad del aire No disponible.
Flu Activity No disponible.
METAR KAVL 290354Z AUTO 16003KT 10SM CLR M03/M08 A3027 RMK AO2 SLP263 T10331078

More Conditions Fewer Conditions

Presión 30.31 pul
Visibilidad 10.0 Millas
Nubes Despejado
Vientos helados 24 ° F
Punto de rocío 18 ° F
Humedad 76%
Precipitaciones 0.00 pul
Espesor de la nieve No disponible.
UV 0 de una escala de 12
Polen .50 de una escala de 12
Calidad del aire No disponible.
Flu Activity No disponible.
METAR KAVL 290354Z AUTO 16003KT 10SM CLR M03/M08 A3027 RMK AO2 SLP263 T10331078

More Conditions Fewer Conditions

10-Day Weather Forecast

Almanac

Astronomía

Jan. 28, 2015 Salida Puesta
Hora real
Crepúsculo civil
Crepúsculo náutico
Crepúsculo astronómico
Luna
Horas de luz
Horas de luz
Tomorrow will be .
, % of the Moon is Illuminated

Extremos de hoy

Máximos del estado Bajos del estado

Community

WunderPhotos

Upload Photos

1,791,344 ¡fotos cargadas!

WunderBlogs® & News

Nearby

Calidad del aire

  Calidad del aire Índice AQ Contaminante
Not available.

Grosos de nieve

Estación Profundido Altura

Actividad de terremotos

Ciudad Distance Mag. Tiempo y dato
Magnitud mínima muestra es 2,5.

Temperaturas de aguas costeras

Lugar Temperatura

Estaciones meteorológicas cercanas